Time;durP1;ratioP1;P1;durP2;ratioP2;P2;SDS_P1;SDS_P2;PMS_P1;PMS_P2;Temp;Humidity;BMP_temperature;BMP_pressure;BME280_temperature;BME280_humidity;BME280_pressure;Samples;Min_cycle;Max_cycle;Signal;HPM_P1;HPM_P2
2021/07/25 00:02:03;;;;;;;130.60;57.33;;;;;;;17.21;86.07;100922.16;4950451;28;20630;-51
2021/07/25 00:04:33;;;;;;;128.80;57.75;;;;;;;17.17;86.49;100916.97;4946187;28;20225;-47
2021/07/25 00:06:58;;;;;;;142.55;59.95;;;;;;;17.16;86.63;100921.34;4951108;28;20039;-49
2021/07/25 00:09:24;;;;;;;135.82;57.00;;;;;;;17.17;86.85;100911.69;4948081;28;20027;-48
2021/07/25 00:11:49;;;;;;;127.63;56.40;;;;;;;17.15;86.62;100911.72;4950236;28;20062;-51
2021/07/25 00:14:15;;;;;;;127.20;57.67;;;;;;;17.15;86.68;100911.72;4944671;28;20278;-49
2021/07/25 00:16:40;;;;;;;132.35;59.03;;;;;;;17.14;86.62;100909.97;4949336;28;20038;-49
2021/07/25 00:19:09;;;;;;;134.85;58.17;;;;;;;17.14;86.73;100914.38;4946833;28;20027;-53
2021/07/25 00:21:35;;;;;;;139.15;59.75;;;;;;;17.14;87.04;100917.03;4947953;28;20110;-50
2021/07/25 00:24:01;;;;;;;134.80;60.95;;;;;;;17.15;86.84;100913.47;4953198;28;20046;-50
2021/07/25 00:26:33;;;;;;;128.90;55.50;;;;;;;17.18;87.05;100910.81;4949547;28;20027;-50
2021/07/25 00:28:58;;;;;;;139.52;60.10;;;;;;;17.18;87.05;100922.22;4948571;28;20368;-50
2021/07/25 00:31:24;;;;;;;156.40;65.22;;;;;;;17.21;87.14;100913.38;4948169;28;20517;-48
2021/07/25 00:33:50;;;;;;;156.10;65.82;;;;;;;17.26;87.30;100911.59;4946665;28;20031;-50
2021/07/25 00:36:16;;;;;;;151.23;62.95;;;;;;;17.31;87.32;100920.31;4948507;28;20248;-50
2021/07/25 00:38:41;;;;;;;146.27;63.42;;;;;;;17.37;87.39;100910.56;4946200;28;20030;-49
2021/07/25 00:41:15;;;;;;;148.65;62.40;;;;;;;17.43;87.35;100926.28;4950045;28;20027;-52
2021/07/25 00:43:41;;;;;;;153.63;60.15;;;;;;;17.51;87.24;100926.16;4950726;28;20519;-48
2021/07/25 00:46:07;;;;;;;165.45;63.60;;;;;;;17.58;86.99;100921.66;4967481;28;20069;-48
2021/07/25 00:48:32;;;;;;;180.23;73.72;;;;;;;17.60;87.18;100920.78;4945779;28;20039;-49
2021/07/25 00:54:01;;;;;;;165.15;68.72;;;;;;;17.67;87.17;100914.53;4950494;28;20133;-52
2021/07/25 00:56:26;;;;;;;159.40;68.30;;;;;;;17.69;87.02;100914.50;4947263;28;20550;-48
2021/07/25 00:58:52;;;;;;;147.52;64.68;;;;;;;17.66;86.80;100904.88;4949267;28;20034;-48
2021/07/25 01:01:20;;;;;;;161.60;68.63;;;;;;;17.63;86.52;100891.72;4946163;28;20391;-47
2021/07/25 01:04:21;;;;;;;147.88;62.90;;;;;;;17.64;86.53;100897.88;4950420;28;20035;-49
2021/07/25 01:07:01;;;;;;;155.88;62.55;;;;;;;17.64;86.83;100890.84;4961207;28;20031;-48
2021/07/25 01:09:43;;;;;;;162.38;63.65;;;;;;;17.65;86.67;100889.06;4947658;28;20114;-50
2021/07/25 01:12:17;;;;;;;153.38;61.28;;;;;;;17.65;86.79;100892.59;4944965;28;20311;-51
2021/07/25 01:14:43;;;;;;;157.38;63.85;;;;;;;17.64;86.71;100900.50;4952400;28;20035;-50
2021/07/25 01:17:29;;;;;;;170.05;66.22;;;;;;;17.65;86.73;100891.72;4943227;28;20509;-50
2021/07/25 01:19:56;;;;;;;159.23;65.82;;;;;;;17.65;86.82;100886.44;4947033;28;20039;-54
2021/07/25 01:22:22;;;;;;;173.02;70.03;;;;;;;17.65;86.87;100882.03;4949273;28;20300;-48
2021/07/25 01:24:47;;;;;;;163.02;66.70;;;;;;;17.65;86.78;100882.03;4946243;28;20569;-49
2021/07/25 01:27:30;;;;;;;173.88;71.50;;;;;;;17.68;86.85;100879.38;4950334;28;20026;-48
2021/07/25 01:29:56;;;;;;;177.85;68.88;;;;;;;17.74;86.86;100883.69;4945342;28;20267;-47
2021/07/25 01:32:22;;;;;;;158.48;61.75;;;;;;;17.77;86.90;100878.34;4949276;28;20137;-47
2021/07/25 01:34:48;;;;;;;164.55;66.03;;;;;;;17.79;86.91;100879.19;4945978;28;20402;-47
2021/07/25 01:37:14;;;;;;;162.45;66.40;;;;;;;17.79;86.75;100880.06;4949595;28;20031;-48
2021/07/25 01:39:40;;;;;;;167.93;70.55;;;;;;;17.81;86.68;100883.53;4949966;28;20041;-47
2021/07/25 01:42:05;;;;;;;155.75;66.95;;;;;;;17.82;86.48;100890.56;4949543;28;20086;-49
2021/07/25 01:44:31;;;;;;;152.40;65.82;;;;;;;17.81;86.39;100891.44;4944546;28;20019;-48
2021/07/25 01:46:56;;;;;;;169.25;69.18;;;;;;;17.80;86.53;100889.72;4945942;28;20082;-52
2021/07/25 01:49:22;;;;;;;161.00;69.50;;;;;;;17.78;86.57;100899.41;4947885;28;20027;-48
2021/07/25 01:51:48;;;;;;;159.00;65.03;;;;;;;17.78;86.47;100902.06;4943038;28;20114;-48
2021/07/25 01:54:14;;;;;;;164.02;68.47;;;;;;;17.79;86.52;100905.56;4950699;28;20022;-50
2021/07/25 01:56:39;;;;;;;157.10;68.30;;;;;;;17.77;86.09;100902.06;4947782;28;20550;-52
2021/07/25 01:59:04;;;;;;;147.27;64.80;;;;;;;17.75;86.06;100899.44;4945168;28;20149;-51
2021/07/25 02:01:30;;;;;;;157.18;68.50;;;;;;;17.73;86.06;100903.03;4948095;28;20168;-50
2021/07/25 02:03:55;;;;;;;140.63;60.28;;;;;;;17.70;86.18;100893.38;4951733;28;20058;-50
2021/07/25 02:06:22;;;;;;;145.95;61.33;;;;;;;17.69;86.08;100888.13;4953250;28;20423;-50
2021/07/25 02:08:48;;;;;;;148.63;61.70;;;;;;;17.66;86.13;100885.56;4951709;28;20414;-47
2021/07/25 02:11:13;;;;;;;145.15;62.60;;;;;;;17.67;86.15;100885.53;4950163;28;20265;-47
2021/07/25 02:13:39;;;;;;;160.43;67.95;;;;;;;17.64;86.37;100880.28;4953502;28;20041;-49
2021/07/25 02:16:07;;;;;;;151.00;62.17;;;;;;;17.64;86.50;100871.50;4954627;28;20027;-47
2021/07/25 02:18:33;;;;;;;160.40;64.47;;;;;;;17.62;86.52;100873.31;4952136;28;20046;-48
2021/07/25 02:20:58;;;;;;;159.50;66.63;;;;;;;17.57;86.52;100873.34;4951088;28;20049;-49
2021/07/25 02:23:42;;;;;;;158.35;64.20;;;;;;;17.50;86.78;100876.97;4952499;28;20399;-48
2021/07/25 02:26:08;;;;;;;156.50;65.45;;;;;;;17.49;86.87;100867.31;4946549;28;20391;-52
2021/07/25 02:28:33;;;;;;;158.65;63.97;;;;;;;17.47;87.16;100858.56;4953172;28;20031;-48
2021/07/25 02:30:58;;;;;;;163.32;66.80;;;;;;;17.47;87.11;100871.75;4949625;28;20113;-47
2021/07/25 02:33:24;;;;;;;167.10;68.28;;;;;;;17.50;87.08;100868.19;4948337;28;20136;-49
2021/07/25 02:35:49;;;;;;;158.88;64.13;;;;;;;17.48;86.36;100868.22;4948765;28;20117;-48
2021/07/25 02:38:14;;;;;;;162.18;65.65;;;;;;;17.42;86.86;100865.66;4949386;28;20411;-51
2021/07/25 02:40:40;;;;;;;148.60;61.08;;;;;;;17.42;86.78;100861.28;4949794;28;20065;-51
2021/07/25 02:43:05;;;;;;;163.18;66.38;;;;;;;17.39;87.07;100860.44;4949015;28;20336;-49
2021/07/25 02:45:30;;;;;;;154.52;66.10;;;;;;;17.36;87.02;100848.19;4949570;28;20054;-47
2021/07/25 02:47:56;;;;;;;166.82;69.22;;;;;;;17.35;86.89;100846.44;4948578;28;20130;-48
2021/07/25 02:50:21;;;;;;;166.15;66.43;;;;;;;17.37;87.08;100844.66;4951465;28;20037;-51
2021/07/25 02:52:46;;;;;;;168.32;68.82;;;;;;;17.41;87.12;100842.84;4951846;28;20485;-49
2021/07/25 02:55:12;;;;;;;181.57;72.05;;;;;;;17.43;87.08;100841.06;4950171;28;20035;-47
2021/07/25 02:57:37;;;;;;;167.32;68.00;;;;;;;17.43;87.18;100835.78;4954127;28;20077;-48
2021/07/25 03:00:04;;;;;;;153.88;63.42;;;;;;;17.38;87.15;100837.63;4949512;28;20034;-47
2021/07/25 03:02:29;;;;;;;160.13;65.40;;;;;;;17.41;87.19;100837.56;4949853;28;20038;-48
2021/07/25 03:04:55;;;;;;;160.10;64.55;;;;;;;17.37;87.15;100831.50;4949450;28;20419;-50
2021/07/25 03:07:20;;;;;;;155.35;61.13;;;;;;;17.40;86.83;100834.06;4954738;28;20039;-47
2021/07/25 03:09:45;;;;;;;166.07;67.90;;;;;;;17.36;87.19;100835.00;4947348;28;20571;-48
2021/07/25 03:12:11;;;;;;;158.05;65.00;;;;;;;17.24;87.42;100843.09;4952119;28;20048;-49
2021/07/25 03:14:36;;;;;;;141.73;58.58;;;;;;;17.21;87.36;100842.25;4949876;28;20041;-50
2021/07/25 03:17:01;;;;;;;166.40;66.97;;;;;;;17.31;87.53;100846.53;4949571;28;20027;-48
2021/07/25 03:19:27;;;;;;;162.07;62.55;;;;;;;17.37;87.15;100849.06;4951036;28;20413;-50
2021/07/25 03:21:52;;;;;;;159.27;62.47;;;;;;;17.38;86.95;100854.28;4948415;28;20110;-47
2021/07/25 03:24:18;;;;;;;141.52;56.38;;;;;;;17.39;87.39;100853.41;4949476;28;20537;-50
2021/07/25 03:26:43;;;;;;;136.15;53.25;;;;;;;17.37;87.09;100854.34;4951174;28;20041;-50
2021/07/25 03:29:08;;;;;;;146.93;59.22;;;;;;;17.38;87.21;100862.19;4952602;28;20031;-48
2021/07/25 03:31:34;;;;;;;151.88;61.75;;;;;;;17.39;87.14;100863.06;4954754;28;20031;-48
2021/07/25 03:34:00;;;;;;;150.43;60.85;;;;;;;17.39;87.25;100858.66;4950711;28;20410;-48
2021/07/25 03:36:26;;;;;;;132.43;54.85;;;;;;;17.39;87.25;100863.06;4950382;28;20143;-47
2021/07/25 03:38:52;;;;;;;130.68;54.13;;;;;;;17.38;87.01;100859.56;4948524;28;20565;-50
2021/07/25 03:41:17;;;;;;;137.45;54.35;;;;;;;17.37;86.95;100857.84;4950006;28;20372;-48
2021/07/25 03:43:43;;;;;;;126.50;53.60;;;;;;;17.36;87.00;100856.09;4951929;28;20201;-48
2021/07/25 03:46:09;;;;;;;116.03;47.70;;;;;;;17.36;86.98;100845.56;4953841;28;20039;-50
2021/07/25 03:48:35;;;;;;;134.68;55.30;;;;;;;17.35;86.97;100838.53;4962283;28;20041;-52
2021/07/25 03:51:01;;;;;;;120.07;53.58;;;;;;;17.30;86.87;100843.00;4948464;28;20038;-48
2021/07/25 03:53:26;;;;;;;117.05;51.38;;;;;;;17.27;86.77;100837.75;4951511;28;20043;-50
2021/07/25 03:55:52;;;;;;;120.50;52.67;;;;;;;17.24;86.70;100835.19;4948389;28;20035;-51
2021/07/25 03:58:17;;;;;;;113.28;50.33;;;;;;;17.20;86.65;100835.28;4951306;28;20106;-51
2021/07/25 04:00:43;;;;;;;124.43;53.03;;;;;;;17.19;86.98;100838.78;4945877;28;20039;-48
2021/07/25 04:03:08;;;;;;;117.03;51.80;;;;;;;17.17;87.00;100832.66;4952455;28;20117;-48
2021/07/25 04:05:33;;;;;;;120.32;50.60;;;;;;;17.16;86.94;100833.53;4952004;28;20026;-48
2021/07/25 04:08:06;;;;;;;113.60;50.17;;;;;;;17.17;86.81;100828.25;4947079;28;20066;-50
2021/07/25 04:10:31;;;;;;;119.13;50.95;;;;;;;17.18;86.87;100829.13;4950340;28;20030;-53
2021/07/25 04:12:56;;;;;;;114.63;50.13;;;;;;;17.18;86.87;100823.88;4950723;28;20031;-50
2021/07/25 04:15:22;;;;;;;125.50;51.13;;;;;;;17.15;87.08;100826.53;4951027;28;20603;-52
2021/07/25 04:17:47;;;;;;;115.78;49.95;;;;;;;17.20;87.04;100830.84;4948782;28;20497;-49
2021/07/25 04:20:13;;;;;;;113.32;48.83;;;;;;;17.25;86.72;100821.13;4949584;28;20034;-50
2021/07/25 04:22:38;;;;;;;109.60;46.72;;;;;;;17.28;86.91;100815.81;4947685;28;20163;-49
2021/07/25 04:25:05;;;;;;;105.47;46.72;;;;;;;17.28;86.62;100817.56;4948786;28;20051;-48
2021/07/25 04:27:31;;;;;;;100.15;46.78;;;;;;;17.30;86.74;100818.41;4949334;28;20039;-47
2021/07/25 04:29:57;;;;;;;106.70;46.50;;;;;;;17.29;86.73;100814.91;4948809;28;20113;-50
2021/07/25 04:32:23;;;;;;;103.25;44.85;;;;;;;17.33;86.82;100819.22;4950455;28;20031;-51
2021/07/25 04:34:49;;;;;;;89.45;42.75;;;;;;;17.36;86.66;100824.47;4947978;28;20089;-50
2021/07/25 04:37:23;;;;;;;80.70;40.55;;;;;;;17.44;86.25;100827.00;4951267;28;20035;-52
2021/07/25 04:39:49;;;;;;;77.70;39.00;;;;;;;17.48;86.08;100826.03;4945534;28;20138;-49
2021/07/25 04:42:25;;;;;;;68.85;34.20;;;;;;;17.50;85.59;100821.63;4948718;28;20030;-49
2021/07/25 04:44:54;;;;;;;69.40;35.60;;;;;;;17.54;85.23;100823.31;4951963;28;20366;-48
2021/07/25 04:47:29;;;;;;;68.18;35.90;;;;;;;17.59;85.22;100825.88;4945845;28;20041;-51
2021/07/25 04:50:02;;;;;;;76.10;38.10;;;;;;;17.63;85.17;100822.31;4947785;28;20035;-50
2021/07/25 04:52:41;;;;;;;73.80;35.88;;;;;;;17.68;85.04;100823.13;4947720;28;20340;-49
2021/07/25 04:55:11;;;;;;;69.85;35.08;;;;;;;17.71;84.82;100841.53;4949604;28;20030;-48
2021/07/25 04:57:42;;;;;;;66.97;35.42;;;;;;;17.74;84.96;100836.22;4947176;28;20019;-49
2021/07/25 05:00:13;;;;;;;62.88;33.33;;;;;;;17.78;85.05;100840.53;4945549;28;20049;-52
2021/07/25 05:02:40;;;;;;;63.28;31.55;;;;;;;17.81;85.25;100835.19;4949159;28;20280;-48
2021/07/25 05:05:06;;;;;;;58.47;30.13;;;;;;;17.84;84.95;100833.38;4949643;28;20495;-51
2021/07/25 05:07:35;;;;;;;56.25;28.85;;;;;;;17.89;84.90;100825.38;4948279;28;20550;-46
2021/07/25 05:10:01;;;;;;;49.25;27.13;;;;;;;17.94;84.49;100828.81;4945411;28;20030;-48
2021/07/25 05:12:30;;;;;;;39.35;22.77;;;;;;;18.00;83.69;100835.75;4962870;28;20031;-47
2021/07/25 05:15:02;;;;;;;34.88;21.00;;;;;;;18.05;82.83;100842.69;4946482;28;20162;-48
2021/07/25 05:17:30;;;;;;;35.35;20.10;;;;;;;18.09;82.39;100838.22;4944913;28;20223;-47
2021/07/25 05:20:04;;;;;;;34.42;19.05;;;;;;;18.11;82.30;100842.56;4943799;28;20134;-48
2021/07/25 05:22:48;;;;;;;;;;;;;;;18.17;82.03;100849.53;4949421;28;20089;-50
2021/07/25 05:25:17;;;;;;;32.17;17.92;;;;;;;18.23;81.94;100850.28;4945373;28;19918;-47
2021/07/25 05:27:44;;;;;;;26.45;16.98;;;;;;;18.29;82.39;100846.66;4949145;28;20035;-47
2021/07/25 05:30:13;;;;;;;29.40;16.95;;;;;;;18.35;82.14;100851.84;4944364;28;20077;-50
2021/07/25 05:32:39;;;;;;;24.13;14.27;;;;;;;18.44;81.00;100845.47;4949388;28;20041;-47
2021/07/25 05:35:05;;;;;;;23.95;14.98;;;;;;;18.54;80.66;100845.28;4949378;28;20031;-47
2021/07/25 05:37:31;;;;;;;24.70;15.10;;;;;;;18.66;81.28;100846.00;4950148;28;20120;-47
2021/07/25 05:39:56;;;;;;;20.98;13.40;;;;;;;18.77;80.55;100847.50;4950070;28;20366;-46
2021/07/25 05:42:22;;;;;;;25.90;13.25;;;;;;;18.83;79.76;100847.38;4948556;28;20766;-50
2021/07/25 05:44:47;;;;;;;18.70;13.05;;;;;;;18.94;79.92;100842.72;4954197;28;20034;-48
2021/07/25 05:47:13;;;;;;;22.08;13.48;;;;;;;18.96;78.80;100842.72;4947962;28;21207;-47
2021/07/25 05:49:38;;;;;;;20.02;12.77;;;;;;;19.00;79.68;100845.25;4951455;28;20026;-50
2021/07/25 05:52:04;;;;;;;22.25;12.88;;;;;;;19.08;80.09;100849.50;4952556;28;20051;-47
2021/07/25 05:54:29;;;;;;;22.95;13.23;;;;;;;19.21;79.71;100845.69;4948346;28;20229;-46
2021/07/25 05:56:54;;;;;;;21.48;12.75;;;;;;;19.29;79.75;100852.50;4969278;28;20026;-47
2021/07/25 05:59:20;;;;;;;21.77;13.07;;;;;;;19.41;78.73;100849.59;4950673;28;20105;-50
2021/07/25 06:01:45;;;;;;;19.10;12.70;;;;;;;19.46;78.28;100840.75;4935626;28;20027;-50
2021/07/25 06:04:11;;;;;;;17.38;11.82;;;;;;;19.53;77.51;100848.47;4951389;28;20030;-50
2021/07/25 06:06:36;;;;;;;20.75;12.07;;;;;;;19.57;77.16;100847.50;4951581;28;20038;-47
2021/07/25 06:09:03;;;;;;;18.85;12.52;;;;;;;19.68;76.66;100850.75;4951993;28;20031;-48
2021/07/25 06:11:29;;;;;;;22.40;11.65;;;;;;;19.83;76.36;100841.56;4950803;28;20027;-48
2021/07/25 06:13:55;;;;;;;18.73;11.65;;;;;;;20.01;76.42;100850.81;4952378;28;20099;-49
2021/07/25 06:16:20;;;;;;;16.63;11.55;;;;;;;20.16;75.85;100845.13;4950029;28;20101;-48
2021/07/25 06:18:48;;;;;;;18.92;11.57;;;;;;;20.28;74.78;100850.09;4951620;28;20533;-49
2021/07/25 06:21:14;;;;;;;19.85;11.75;;;;;;;20.49;73.59;100854.81;4947731;28;20361;-47
2021/07/25 06:23:39;;;;;;;16.95;10.82;;;;;;;20.92;72.99;100850.97;4953525;28;20030;-51
2021/07/25 06:26:05;;;;;;;20.98;11.60;;;;;;;21.53;70.34;100849.13;4952854;28;20042;-49
2021/07/25 06:28:30;;;;;;;17.08;10.70;;;;;;;22.53;67.60;100851.00;4952459;28;20771;-51
2021/07/25 06:30:56;;;;;;;14.55;10.18;;;;;;;23.66;62.73;100840.47;4953977;28;20455;-48
2021/07/25 06:33:21;;;;;;;13.70;9.77;;;;;;;25.33;57.55;100829.44;4949656;28;20118;-50
2021/07/25 06:35:47;;;;;;;12.40;9.27;;;;;;;26.34;54.70;100835.97;4952027;28;20465;-47
2021/07/25 06:38:14;;;;;;;16.42;9.90;;;;;;;27.20;52.65;100833.09;4951379;28;20113;-50
2021/07/25 06:40:45;;;;;;;14.05;9.65;;;;;;;27.53;51.49;100833.00;4951506;28;20370;-48
2021/07/25 06:43:10;;;;;;;14.80;9.57;;;;;;;27.91;50.99;100839.69;4952319;28;20212;-49
2021/07/25 06:45:36;;;;;;;13.85;9.60;;;;;;;28.35;50.74;100837.06;4950584;28;20826;-48
2021/07/25 06:48:01;;;;;;;14.90;9.90;;;;;;;29.14;46.21;100839.28;4952517;28;20058;-46
2021/07/25 06:50:29;;;;;;;14.90;10.02;;;;;;;28.79;48.11;100834.31;4947850;28;20027;-47
2021/07/25 06:52:56;;;;;;;15.52;10.60;;;;;;;28.62;46.67;100831.78;4953165;28;20037;-48
2021/07/25 06:55:28;;;;;;;15.55;10.57;;;;;;;28.45;49.03;100827.47;4950972;28;20527;-48
2021/07/25 06:57:54;;;;;;;16.65;10.32;;;;;;;28.74;47.62;100827.50;4952658;28;20054;-53
2021/07/25 07:00:20;;;;;;;15.57;10.30;;;;;;;28.59;47.50;100827.50;4960986;28;20062;-47
2021/07/25 07:02:49;;;;;;;14.30;10.07;;;;;;;28.60;48.17;100828.34;4952582;28;20027;-50
2021/07/25 07:05:16;;;;;;;14.93;10.00;;;;;;;28.17;47.92;100822.09;4967194;28;20274;-47
2021/07/25 07:07:41;;;;;;;15.60;9.55;;;;;;;28.13;49.15;100825.84;4948812;28;20035;-49
2021/07/25 07:10:07;;;;;;;14.30;9.50;;;;;;;28.36;49.63;100817.28;4948580;28;20042;-52
2021/07/25 07:12:34;;;;;;;13.48;9.30;;;;;;;28.60;48.21;100813.13;4950729;28;20026;-48
2021/07/25 07:14:59;;;;;;;16.02;9.80;;;;;;;28.27;50.11;100827.72;4953384;28;20073;-48
2021/07/25 07:17:25;;;;;;;13.82;9.80;;;;;;;28.51;48.34;100829.78;4951702;28;20034;-47
2021/07/25 07:19:50;;;;;;;13.52;9.82;;;;;;;28.68;49.99;100826.03;4948516;28;20031;-48
2021/07/25 07:22:28;;;;;;;14.85;9.95;;;;;;;27.85;50.62;100830.19;4951676;28;20027;-50
2021/07/25 07:24:54;;;;;;;16.52;10.15;;;;;;;28.57;48.04;100831.22;4947268;28;20606;-52
2021/07/25 07:27:21;;;;;;;14.70;8.82;;;;;;;28.69;48.31;100830.44;4947557;28;20443;-54
2021/07/25 07:29:46;;;;;;;17.17;9.85;;;;;;;28.12;48.75;100830.34;4947351;28;20035;-49
2021/07/25 07:32:12;;;;;;;14.80;10.20;;;;;;;28.51;47.98;100837.81;4948708;28;20101;-49
2021/07/25 07:34:37;;;;;;;15.55;9.75;;;;;;;29.10;47.24;100830.53;4948561;28;20109;-48
2021/07/25 07:37:04;;;;;;;13.27;9.60;;;;;;;29.38;46.36;100835.91;4947098;28;20414;-49
2021/07/25 07:39:29;;;;;;;13.20;9.55;;;;;;;29.51;46.67;100841.31;4944181;28;20105;-52
2021/07/25 07:42:13;;;;;;;13.15;9.57;;;;;;;29.33;49.74;100838.03;4946376;28;20473;-49
2021/07/25 07:44:40;;;;;;;13.23;9.13;;;;;;;29.70;47.21;100840.97;4946073;28;20129;-49
2021/07/25 07:47:05;;;;;;;15.23;9.77;;;;;;;29.58;49.57;100845.31;4944234;28;20446;-48
2021/07/25 07:49:31;;;;;;;14.18;9.55;;;;;;;28.60;49.18;100839.94;4948860;28;20824;-51
2021/07/25 07:51:56;;;;;;;15.13;10.02;;;;;;;28.00;51.18;100840.94;4955740;28;20956;-53
2021/07/25 07:54:21;;;;;;;15.18;9.65;;;;;;;27.98;52.82;100845.53;4947576;28;20042;-50
2021/07/25 07:56:47;;;;;;;18.88;10.55;;;;;;;28.43;51.29;100848.16;4939801;28;20023;-51
2021/07/25 07:59:12;;;;;;;15.20;9.90;;;;;;;28.33;52.49;100844.31;4948800;28;20041;-47
2021/07/25 08:01:38;;;;;;;14.40;9.13;;;;;;;28.08;51.72;100839.53;4963159;28;20465;-50
2021/07/25 08:04:03;;;;;;;14.95;9.73;;;;;;;28.17;50.39;100833.66;4959858;28;20129;-52
2021/07/25 08:06:28;;;;;;;11.40;8.75;;;;;;;28.36;49.09;100830.72;4952583;28;20406;-50
2021/07/25 08:08:54;;;;;;;13.40;9.05;;;;;;;29.06;47.88;100829.03;4945803;28;20094;-49
2021/07/25 08:11:19;;;;;;;14.25;8.65;;;;;;;29.88;45.90;100837.06;4951701;28;20079;-48
2021/07/25 08:13:45;;;;;;;13.63;9.05;;;;;;;30.13;45.50;100839.81;4953794;28;20035;-48
2021/07/25 08:16:11;;;;;;;14.93;8.30;;;;;;;30.34;44.68;100839.28;4948268;28;20030;-52
2021/07/25 08:18:37;;;;;;;12.57;8.18;;;;;;;31.04;43.42;100833.38;4949148;28;20497;-51
2021/07/25 08:21:03;;;;;;;12.02;8.48;;;;;;;31.37;44.35;100834.59;4947862;28;20502;-50
2021/07/25 08:23:28;;;;;;;14.05;8.80;;;;;;;31.47;41.95;100834.78;4946976;28;20054;-50
2021/07/25 08:25:54;;;;;;;11.57;8.15;;;;;;;30.99;42.40;100840.91;4948471;28;20047;-48
2021/07/25 08:28:20;;;;;;;9.75;7.38;;;;;;;31.18;42.80;100840.47;4947449;28;20086;-47
2021/07/25 08:30:46;;;;;;;13.02;8.15;;;;;;;31.38;41.85;100830.94;4948255;28;20683;-48
2021/07/25 08:33:11;;;;;;;16.13;9.18;;;;;;;30.49;48.79;100844.53;4947152;28;20109;-49
2021/07/25 08:35:37;;;;;;;15.18;9.02;;;;;;;29.85;46.88;100848.84;4950708;28;20196;-50
2021/07/25 08:38:02;;;;;;;12.90;10.07;;;;;;;28.58;50.20;100849.03;4949450;28;20104;-48
2021/07/25 08:40:30;;;;;;;15.23;10.98;;;;;;;27.82;51.40;100856.28;4950255;28;20558;-53
2021/07/25 08:43:08;;;;;;;20.45;14.60;;;;;;;27.89;49.58;100852.28;4949273;28;20486;-50
2021/07/25 08:45:35;;;;;;;17.20;14.00;;;;;;;28.01;49.66;100853.38;4947849;28;20300;-49
2021/07/25 08:48:03;;;;;;;15.82;12.02;;;;;;;27.89;48.46;100851.44;4946318;28;20029;-48
2021/07/25 08:51:03;;;;;;;15.98;11.60;;;;;;;27.58;48.81;100855.03;4949778;28;20034;-51
2021/07/25 08:53:34;;;;;;;15.20;9.60;;;;;;;26.84;49.32;100860.00;4948860;28;20213;-51
2021/07/25 08:55:59;;;;;;;18.23;10.48;;;;;;;26.77;52.05;100863.97;4950480;28;20444;-51
2021/07/25 08:58:27;;;;;;;12.02;8.63;;;;;;;26.58;52.67;100866.78;4944069;28;20274;-49
2021/07/25 09:00:53;;;;;;;16.13;9.43;;;;;;;26.36;56.46;100864.34;4946115;28;20621;-47
2021/07/25 09:03:19;;;;;;;13.63;10.05;;;;;;;26.38;55.37;100861.59;4949463;28;20094;-50
2021/07/25 09:05:46;;;;;;;16.42;11.10;;;;;;;26.63;53.64;100868.25;4948792;28;20054;-51
2021/07/25 09:08:12;;;;;;;15.73;10.65;;;;;;;26.94;51.99;100850.59;4948639;28;20545;-50
2021/07/25 09:10:37;;;;;;;16.45;9.80;;;;;;;27.18;51.91;100853.72;4951691;28;20088;-48
2021/07/25 09:13:03;;;;;;;16.52;9.95;;;;;;;27.38;50.75;100865.03;4951469;28;20061;-49
2021/07/25 09:15:31;;;;;;;14.27;9.32;;;;;;;27.48;51.08;100864.50;4952147;28;20951;-52
2021/07/25 09:18:16;;;;;;;13.00;8.82;;;;;;;27.85;48.49;100865.03;4952692;28;20027;-48
2021/07/25 09:20:42;;;;;;;15.57;8.95;;;;;;;27.94;49.26;100874.31;4955437;28;20051;-51
2021/07/25 09:23:16;;;;;;;14.90;10.60;;;;;;;28.04;49.87;100864.81;4950048;28;20122;-51
2021/07/25 09:26:07;;;;;;;18.63;11.45;;;;;;;27.65;49.87;100867.13;4952012;28;20392;-50
2021/07/25 09:28:36;;;;;;;17.95;11.88;;;;;;;27.23;51.61;100873.06;4946434;28;20138;-50
2021/07/25 09:31:13;;;;;;;17.38;11.43;;;;;;;26.89;51.98;100866.03;4966450;28;20565;-51
2021/07/25 09:33:42;;;;;;;15.48;10.02;;;;;;;26.99;52.67;100876.13;4951864;28;20023;-50
2021/07/25 09:36:13;;;;;;;16.75;9.60;;;;;;;27.00;52.58;100875.19;4951614;28;20030;-50
2021/07/25 09:38:40;;;;;;;21.17;8.95;;;;;;;27.27;53.76;100886.16;4950793;28;20031;-52
2021/07/25 09:41:15;;;;;;;14.15;10.20;;;;;;;27.74;50.13;100885.34;4952558;28;20026;-51
2021/07/25 09:43:41;;;;;;;14.40;9.07;;;;;;;28.12;49.83;100875.91;4950972;28;20023;-49
2021/07/25 09:46:06;;;;;;;14.38;9.70;;;;;;;28.11;51.03;100882.25;4947549;28;20491;-53
2021/07/25 09:48:33;;;;;;;15.32;11.15;;;;;;;27.94;51.79;100876.13;4952782;28;20031;-49
2021/07/25 09:51:17;;;;;;;17.00;10.82;;;;;;;28.14;50.24;100878.53;4950679;28;20031;-48
2021/07/25 09:53:53;;;;;;;18.77;12.95;;;;;;;28.15;51.22;100877.59;4955196;28;20035;-50
2021/07/25 09:56:25;;;;;;;23.90;16.75;;;;;;;28.02;51.30;100880.09;4946544;28;20097;-48
2021/07/25 09:58:51;;;;;;;23.65;16.67;;;;;;;27.92;51.19;100881.59;4950408;28;20055;-49
2021/07/25 10:01:38;;;;;;;25.02;16.85;;;;;;;27.75;52.08;100884.41;4934223;28;20031;-51
2021/07/25 10:04:21;;;;;;;26.17;16.60;;;;;;;27.10;52.56;100880.91;4948930;28;20303;-49
2021/07/25 10:06:48;;;;;;;27.10;17.17;;;;;;;26.69;54.20;100880.44;4951302;28;20487;-48
2021/07/25 10:09:15;;;;;;;22.80;16.38;;;;;;;26.54;54.62;100882.09;4959890;28;20869;-52
2021/07/25 10:12:06;;;;;;;25.83;15.75;;;;;;;26.37;54.12;100875.91;4948529;28;20091;-52
2021/07/25 10:14:34;;;;;;;21.65;15.05;;;;;;;26.36;55.90;100876.84;4950577;28;20350;-50
2021/07/25 10:17:02;;;;;;;24.27;15.85;;;;;;;26.63;54.77;100873.59;4952962;28;20402;-50
2021/07/25 10:19:39;;;;;;;27.48;18.75;;;;;;;26.71;53.06;100881.22;4949312;28;20031;-50
2021/07/25 10:22:16;;;;;;;27.92;17.30;;;;;;;26.92;54.79;100873.88;4948963;28;20054;-49
2021/07/25 10:24:45;;;;;;;28.08;19.60;;;;;;;26.80;54.66;100869.16;4963288;28;20542;-48
2021/07/25 10:27:14;;;;;;;28.00;18.70;;;;;;;26.78;56.00;100874.56;4949092;28;20557;-48
2021/07/25 10:29:40;;;;;;;28.48;18.35;;;;;;;27.00;56.10;100868.97;4941217;28;20027;-48
2021/07/25 10:32:09;;;;;;;29.40;20.63;;;;;;;27.00;53.67;100863.63;4949603;28;20031;-48
2021/07/25 10:34:37;;;;;;;29.77;20.58;;;;;;;26.93;54.18;100870.25;4947343;28;20556;-49
2021/07/25 10:37:03;;;;;;;29.40;20.42;;;;;;;27.32;54.12;100876.09;4948500;28;21287;-49
2021/07/25 10:39:29;;;;;;;32.08;20.88;;;;;;;27.61;53.15;100868.25;4950141;28;20498;-49
2021/07/25 10:41:59;;;;;;;27.80;19.25;;;;;;;27.84;53.57;100874.00;4949762;28;20030;-48
2021/07/25 10:44:24;;;;;;;31.08;21.50;;;;;;;27.60;51.26;100870.06;4971012;28;20053;-50
2021/07/25 10:47:15;;;;;;;30.92;20.52;;;;;;;27.19;51.90;100876.84;4946837;28;20396;-53
2021/07/25 10:49:41;;;;;;;32.75;21.15;;;;;;;26.62;53.87;100877.22;4954039;28;20034;-49
2021/07/25 10:52:06;;;;;;;29.25;20.05;;;;;;;26.38;54.93;100878.50;4949962;28;20026;-48
2021/07/25 10:54:32;;;;;;;33.97;22.00;;;;;;;26.45;56.02;100877.25;4951511;28;20058;-48
2021/07/25 10:56:58;;;;;;;34.90;22.10;;;;;;;26.67;54.21;100883.19;4966425;28;20348;-48
2021/07/25 10:59:43;;;;;;;26.60;17.73;;;;;;;26.66;53.85;100884.13;4947650;28;20039;-50
2021/07/25 11:02:51;;;;;;;31.92;23.00;;;;;;;26.46;55.37;100883.47;4950542;28;20490;-48
2021/07/25 11:05:17;;;;;;;30.85;20.33;;;;;;;26.51;54.32;100886.75;4945326;28;20437;-49
2021/07/25 11:07:55;;;;;;;31.42;21.25;;;;;;;26.54;56.22;100883.91;4951633;28;20657;-49
2021/07/25 11:10:29;;;;;;;36.15;23.73;;;;;;;26.46;56.99;100884.31;4951105;28;20034;-47
2021/07/25 11:12:55;;;;;;;37.60;24.63;;;;;;;26.71;53.96;100877.69;4952307;28;20030;-50
2021/07/25 11:15:35;;;;;;;34.35;22.70;;;;;;;27.01;53.68;100879.59;4948044;28;20034;-50